createdAt,value
2023-04-24T00:00:52.003Z,10.60
2023-04-24T00:03:22.318Z,10.60
2023-04-24T00:05:50.908Z,10.60
2023-04-24T00:08:18.776Z,10.60
2023-04-24T00:10:46.703Z,10.60
2023-04-24T00:13:14.651Z,10.60
2023-04-24T00:15:43.819Z,10.60
2023-04-24T00:18:11.570Z,10.50
2023-04-24T00:20:39.462Z,10.50
2023-04-24T00:23:07.240Z,10.50
2023-04-24T00:25:34.953Z,10.50
2023-04-24T00:28:03.378Z,10.50
2023-04-24T00:30:31.183Z,10.50
2023-04-24T00:33:00.439Z,10.50
2023-04-24T00:35:28.374Z,10.50
2023-04-24T00:37:56.358Z,10.40
2023-04-24T00:40:24.487Z,10.40
2023-04-24T00:42:52.353Z,10.40
2023-04-24T00:45:20.442Z,10.40
2023-04-24T00:47:48.741Z,10.40
2023-04-24T00:50:18.193Z,10.40
2023-04-24T00:52:46.037Z,10.40
2023-04-24T00:55:13.933Z,10.30
2023-04-24T00:57:41.751Z,10.40
2023-04-24T01:00:12.882Z,10.30
2023-04-24T01:02:45.347Z,10.30
2023-04-24T01:05:14.207Z,10.40
2023-04-24T01:07:45.312Z,10.30
2023-04-24T01:10:13.604Z,10.30
2023-04-24T01:12:41.398Z,10.30
2023-04-24T01:15:10.099Z,10.20
2023-04-24T01:17:38.113Z,10.20
2023-04-24T01:20:07.010Z,10.20
2023-04-24T01:22:37.143Z,10.20
2023-04-24T01:25:06.245Z,10.20
2023-04-24T01:27:34.304Z,10.20
2023-04-24T01:30:02.765Z,10.20
2023-04-24T01:32:30.723Z,10.20
2023-04-24T01:34:58.647Z,10.20
2023-04-24T01:37:27.963Z,10.20
2023-04-24T01:39:57.129Z,10.10
2023-04-24T01:42:25.226Z,10.10
2023-04-24T01:44:53.271Z,10.10
2023-04-24T01:47:21.062Z,10.10
2023-04-24T01:49:50.037Z,10.10
2023-04-24T01:52:18.934Z,10.10
2023-04-24T01:54:47.039Z,10.00
2023-04-24T01:57:16.769Z,10.10
2023-04-24T01:59:44.892Z,10.00
2023-04-24T02:02:13.003Z,10.00
2023-04-24T02:04:41.273Z,10.00
2023-04-24T02:07:09.161Z,10.00
2023-04-24T02:09:36.930Z,10.00
2023-04-24T02:12:05.378Z,10.00
2023-04-24T02:14:34.719Z,10.00
2023-04-24T02:17:02.763Z,10.00
2023-04-24T02:19:30.729Z,9.90
2023-04-24T02:21:58.687Z,10.00
2023-04-24T02:24:26.622Z,9.90
2023-04-24T02:26:54.588Z,9.90
2023-04-24T02:29:22.427Z,9.90
2023-04-24T02:31:51.667Z,9.90
2023-04-24T02:34:19.681Z,9.90
2023-04-24T02:36:47.552Z,9.90
2023-04-24T02:39:17.491Z,10.00
2023-04-24T02:41:45.553Z,9.90
2023-04-24T02:44:13.711Z,9.90
2023-04-24T02:46:42.272Z,9.90
2023-04-24T02:49:13.011Z,9.90
2023-04-24T02:51:42.310Z,9.90
2023-04-24T02:54:10.959Z,9.90
2023-04-24T02:56:38.881Z,9.90
2023-04-24T02:59:06.799Z,9.90
2023-04-24T03:01:34.644Z,9.90
2023-04-24T03:04:02.888Z,9.90
2023-04-24T03:06:33.989Z,9.90
2023-04-24T03:09:01.975Z,9.80
2023-04-24T03:11:29.801Z,9.80
2023-04-24T03:13:57.659Z,10.00
2023-04-24T03:16:25.403Z,9.80
2023-04-24T03:18:53.250Z,9.80
2023-04-24T03:21:21.324Z,9.80
2023-04-24T03:23:50.448Z,9.80
2023-04-24T03:26:18.440Z,9.80
2023-04-24T03:28:46.343Z,9.80
2023-04-24T03:31:14.304Z,9.80
2023-04-24T03:33:42.123Z,9.80
2023-04-24T03:36:10.166Z,9.80
2023-04-24T03:38:37.965Z,9.80
2023-04-24T03:41:07.177Z,9.80
2023-04-24T03:43:35.851Z,9.80
2023-04-24T03:46:03.963Z,9.80
2023-04-24T03:48:31.991Z,9.80
2023-04-24T03:50:59.900Z,9.80
2023-04-24T03:53:27.644Z,9.80
2023-04-24T03:55:55.999Z,9.70
2023-04-24T03:58:25.111Z,9.80
2023-04-24T04:00:53.115Z,9.80
2023-04-24T04:03:21.212Z,9.80
2023-04-24T04:05:49.146Z,9.80
2023-04-24T04:08:16.893Z,9.80
2023-04-24T04:10:44.916Z,9.80
2023-04-24T04:13:12.728Z,9.70
2023-04-24T04:15:42.041Z,9.70
2023-04-24T04:18:10.334Z,9.70
2023-04-24T04:20:38.301Z,9.70
2023-04-24T04:23:06.210Z,9.60
2023-04-24T04:25:34.129Z,9.70
2023-04-24T04:28:03.660Z,9.70
2023-04-24T04:30:33.130Z,9.70
2023-04-24T04:33:02.382Z,9.70
2023-04-24T04:35:30.273Z,9.60
2023-04-24T04:37:59.877Z,9.80
2023-04-24T04:40:28.912Z,9.60
2023-04-24T04:42:56.909Z,9.60
2023-04-24T04:45:25.325Z,9.60
2023-04-24T04:47:53.274Z,9.60
2023-04-24T04:50:23.869Z,9.70
2023-04-24T04:52:51.793Z,9.70
2023-04-24T04:55:20.897Z,9.60
2023-04-24T04:57:48.717Z,9.70
2023-04-24T05:00:16.808Z,9.70
2023-04-24T05:02:44.967Z,9.70
2023-04-24T05:05:13.070Z,9.70
2023-04-24T05:07:42.326Z,9.70
2023-04-24T05:10:10.891Z,9.70
2023-04-24T05:12:38.989Z,9.70
2023-04-24T05:15:07.257Z,9.60
2023-04-24T05:17:35.365Z,9.60
2023-04-24T05:20:03.744Z,9.60
2023-04-24T05:22:31.434Z,9.60
2023-04-24T05:25:00.790Z,9.50
2023-04-24T05:27:28.588Z,9.50
2023-04-24T05:29:56.446Z,9.50
2023-04-24T05:32:24.348Z,9.50
2023-04-24T05:34:52.151Z,9.20
2023-04-24T05:37:19.888Z,9.40
2023-04-24T05:39:47.704Z,9.40
2023-04-24T05:42:16.831Z,9.40
2023-04-24T05:44:44.692Z,9.30
2023-04-24T05:47:12.706Z,9.30
2023-04-24T05:49:40.826Z,9.30
2023-04-24T05:52:09.834Z,9.30
2023-04-24T05:54:37.664Z,9.30
2023-04-24T05:57:08.549Z,9.30
2023-04-24T05:59:39.328Z,9.30
2023-04-24T06:02:08.160Z,9.30
2023-04-24T06:04:36.699Z,9.30
2023-04-24T06:07:04.639Z,9.30
2023-04-24T06:09:32.515Z,9.30
2023-04-24T06:12:01.141Z,9.20
2023-04-24T06:14:29.837Z,9.20
2023-04-24T06:16:59.135Z,9.20
2023-04-24T06:19:27.105Z,9.20
2023-04-24T06:21:54.849Z,9.20
2023-04-24T06:24:23.163Z,9.20
2023-04-24T06:26:51.074Z,9.20
2023-04-24T06:29:18.907Z,9.20
2023-04-24T06:31:46.988Z,9.20
2023-04-24T06:34:16.129Z,9.20
2023-04-24T06:36:44.049Z,9.20
2023-04-24T06:39:11.981Z,9.20
2023-04-24T06:41:41.002Z,9.20
2023-04-24T06:44:09.159Z,9.20
2023-04-24T06:46:37.824Z,9.20
2023-04-24T06:49:06.884Z,9.20
2023-04-24T06:51:36.046Z,9.20
2023-04-24T06:54:03.917Z,9.10
2023-04-24T06:56:31.871Z,9.20
2023-04-24T06:58:59.657Z,9.10
2023-04-24T07:01:27.596Z,9.10
2023-04-24T07:03:56.068Z,9.20
2023-04-24T07:06:25.256Z,9.20
2023-04-24T07:08:54.742Z,9.10
2023-04-24T07:11:23.259Z,9.20
2023-04-24T07:13:51.131Z,9.20
2023-04-24T07:16:19.087Z,9.20
2023-04-24T07:18:46.828Z,9.20
2023-04-24T07:21:14.742Z,9.20
2023-04-24T07:23:43.353Z,9.20
2023-04-24T07:26:12.467Z,9.10
2023-04-24T07:28:40.578Z,9.10
2023-04-24T07:31:08.503Z,9.00
2023-04-24T07:33:37.454Z,9.00
2023-04-24T07:36:05.556Z,9.00
2023-04-24T07:38:33.701Z,9.00
2023-04-24T07:41:01.597Z,9.00
2023-04-24T07:43:30.898Z,9.00
2023-04-24T07:45:58.676Z,9.00
2023-04-24T07:48:27.487Z,9.10
2023-04-24T07:50:55.377Z,9.00
2023-04-24T07:53:23.313Z,9.10
2023-04-24T07:55:51.456Z,9.10
2023-04-24T07:58:19.257Z,9.20
2023-04-24T08:00:48.392Z,9.20
2023-04-24T08:03:19.477Z,9.20
2023-04-24T08:05:47.592Z,9.20
2023-04-24T08:08:15.860Z,9.20
2023-04-24T08:10:43.708Z,9.20
2023-04-24T08:13:12.455Z,9.20
2023-04-24T08:15:40.334Z,9.20
2023-04-24T08:18:10.059Z,9.20
2023-04-24T08:20:38.072Z,9.10
2023-04-24T08:23:05.983Z,9.10
2023-04-24T08:25:34.165Z,9.10
2023-04-24T08:28:02.019Z,9.20
2023-04-24T08:30:31.963Z,9.20
2023-04-24T08:33:00.263Z,9.30
2023-04-24T08:35:29.399Z,9.30
2023-04-24T08:37:57.346Z,9.40
2023-04-24T08:40:29.803Z,9.30
2023-04-24T08:42:58.156Z,9.50
2023-04-24T08:45:27.086Z,9.60
2023-04-24T08:47:55.498Z,9.70
2023-04-24T08:50:23.984Z,9.80
2023-04-24T08:52:54.711Z,9.80
2023-04-24T08:55:23.003Z,9.80
2023-04-24T08:57:52.715Z,9.70
2023-04-24T09:00:21.095Z,9.30
2023-04-24T09:02:50.996Z,9.20
2023-04-24T09:05:19.808Z,9.20
2023-04-24T09:07:51.677Z,9.20
2023-04-24T09:10:21.817Z,9.20
2023-04-24T09:12:49.678Z,9.40
2023-04-24T09:15:17.654Z,9.50
2023-04-24T09:17:45.670Z,9.70
2023-04-24T09:20:13.630Z,9.80
2023-04-24T09:22:41.845Z,9.70
2023-04-24T09:25:12.444Z,9.80
2023-04-24T09:27:46.056Z,9.80
2023-04-24T09:30:14.445Z,9.80
2023-04-24T09:32:42.743Z,9.70
2023-04-24T09:35:11.848Z,9.50
2023-04-24T09:37:40.385Z,9.50
2023-04-24T09:40:12.762Z,9.60
2023-04-24T09:42:40.537Z,9.50
2023-04-24T09:45:15.553Z,9.60
2023-04-24T09:47:44.621Z,9.70
2023-04-24T09:50:16.567Z,9.90
2023-04-24T09:52:45.965Z,10.00
2023-04-24T09:55:14.520Z,10.00
2023-04-24T09:57:55.689Z,10.40
2023-04-24T10:00:26.301Z,10.30
2023-04-24T10:02:57.657Z,10.30
2023-04-24T10:05:26.088Z,10.40
2023-04-24T10:07:54.090Z,10.40
2023-04-24T10:10:22.188Z,10.40
2023-04-24T10:12:50.308Z,10.40
2023-04-24T10:15:21.625Z,10.30
2023-04-24T10:17:54.086Z,10.30
2023-04-24T10:20:23.087Z,10.30
2023-04-24T10:22:52.469Z,10.30
2023-04-24T10:25:21.113Z,10.30
2023-04-24T10:27:49.241Z,10.30
2023-04-24T10:30:18.070Z,10.30
2023-04-24T10:32:46.117Z,10.20
2023-04-24T10:35:16.739Z,10.10
2023-04-24T10:37:47.073Z,10.10
2023-04-24T10:40:19.180Z,10.20
2023-04-24T10:42:49.434Z,10.30
2023-04-24T10:45:22.387Z,10.20
2023-04-24T10:47:54.003Z,10.40
2023-04-24T10:50:23.210Z,10.60
2023-04-24T10:52:52.364Z,10.70
2023-04-24T10:55:41.208Z,10.70
2023-04-24T10:58:09.363Z,10.60
2023-04-24T11:00:38.869Z,10.70
2023-04-24T11:03:07.166Z,10.80
2023-04-24T11:05:55.731Z,10.80
2023-04-24T11:08:24.995Z,10.80
2023-04-24T11:10:57.668Z,10.70
2023-04-24T11:13:26.770Z,10.60
2023-04-24T11:16:13.171Z,10.60
2023-04-24T11:18:41.340Z,10.50
2023-04-24T11:21:13.976Z,10.40
2023-04-24T11:23:41.913Z,10.40
2023-04-24T11:26:13.561Z,10.50
2023-04-24T11:28:46.103Z,10.50
2023-04-24T11:31:32.794Z,10.70
2023-04-24T11:34:07.361Z,10.80
2023-04-24T11:36:36.786Z,10.80
2023-04-24T11:39:04.891Z,10.70
2023-04-24T11:41:32.926Z,10.60
2023-04-24T11:44:01.025Z,10.60
2023-04-24T11:46:29.685Z,10.60
2023-04-24T11:48:57.766Z,10.80
2023-04-24T11:51:30.669Z,10.90
2023-04-24T11:54:04.439Z,11.00
2023-04-24T11:56:32.747Z,11.20
2023-04-24T11:59:00.508Z,11.20
2023-04-24T12:01:28.509Z,11.30
2023-04-24T12:04:02.276Z,11.40
2023-04-24T12:06:31.716Z,11.50
2023-04-24T12:09:04.906Z,11.40
2023-04-24T12:11:54.311Z,11.40
2023-04-24T12:14:22.180Z,11.30
2023-04-24T12:16:50.294Z,11.10
2023-04-24T12:19:21.467Z,11.30
2023-04-24T12:22:00.702Z,11.20
2023-04-24T12:24:28.610Z,11.30
2023-04-24T12:26:57.989Z,11.30
2023-04-24T12:29:26.334Z,11.40
2023-04-24T12:31:54.440Z,11.20
2023-04-24T12:34:22.888Z,11.20
2023-04-24T12:36:50.618Z,11.20
2023-04-24T12:39:18.735Z,11.20
2023-04-24T12:41:53.152Z,11.00
2023-04-24T12:44:23.375Z,11.00
2023-04-24T12:46:51.451Z,11.20
2023-04-24T12:49:19.335Z,11.00
2023-04-24T12:51:47.243Z,11.20
2023-04-24T12:54:15.173Z,11.50
2023-04-24T12:56:43.148Z,11.60
2023-04-24T12:59:11.099Z,11.70
2023-04-24T13:01:40.292Z,11.60
2023-04-24T13:04:08.227Z,11.40
2023-04-24T13:06:36.311Z,11.20
2023-04-24T13:09:04.529Z,11.00
2023-04-24T13:11:32.347Z,10.60
2023-04-24T13:14:00.252Z,10.30
2023-04-24T13:16:28.086Z,10.40
2023-04-24T13:18:57.343Z,10.30
2023-04-24T13:21:25.193Z,10.40
2023-04-24T13:23:52.928Z,10.30
2023-04-24T13:26:20.885Z,9.90
2023-04-24T13:28:48.850Z,9.80
2023-04-24T13:31:16.709Z,9.80
2023-04-24T13:33:44.914Z,9.80
2023-04-24T13:36:14.769Z,9.90
2023-04-24T13:38:42.513Z,10.00
2023-04-24T13:41:10.406Z,10.30
2023-04-24T13:43:38.541Z,10.30
2023-04-24T13:46:06.380Z,10.40
2023-04-24T13:48:34.116Z,10.20
2023-04-24T13:51:02.378Z,10.30
2023-04-24T13:53:31.634Z,10.30
2023-04-24T13:55:59.576Z,10.40
2023-04-24T13:58:27.693Z,10.40
2023-04-24T14:00:55.588Z,10.50
2023-04-24T14:03:23.431Z,10.70
2023-04-24T14:05:51.685Z,10.60
2023-04-24T14:08:19.675Z,10.40
2023-04-24T14:10:48.849Z,9.90
2023-04-24T14:13:16.883Z,9.70
2023-04-24T14:15:44.901Z,9.70
2023-04-24T14:18:12.988Z,9.80
2023-04-24T14:20:41.112Z,9.80
2023-04-24T14:23:08.925Z,10.00
2023-04-24T14:25:36.859Z,10.10
2023-04-24T14:28:07.823Z,10.30
2023-04-24T14:30:35.883Z,10.30
2023-04-24T14:33:03.705Z,10.50
2023-04-24T14:35:32.436Z,10.50
2023-04-24T14:38:00.837Z,10.60
2023-04-24T14:40:58.284Z,10.60
2023-04-24T14:43:17.880Z,10.70
2023-04-24T14:45:45.658Z,10.80
2023-04-24T14:48:13.447Z,11.00
2023-04-24T14:50:41.585Z,11.00
2023-04-24T14:53:09.504Z,11.00
2023-04-24T14:55:37.696Z,11.00
2023-04-24T14:58:05.757Z,11.00
2023-04-24T15:00:34.863Z,11.00
2023-04-24T15:03:02.888Z,11.20
2023-04-24T15:05:31.581Z,11.10
2023-04-24T15:07:59.479Z,11.20
2023-04-24T15:10:27.452Z,11.20
2023-04-24T15:12:55.617Z,11.20
2023-04-24T15:15:23.824Z,11.10
2023-04-24T15:17:53.143Z,11.30
2023-04-24T15:20:21.395Z,11.10
2023-04-24T15:22:49.217Z,11.00
2023-04-24T15:25:17.129Z,11.00
2023-04-24T15:27:45.449Z,11.00
2023-04-24T15:30:14.005Z,11.00
2023-04-24T15:32:42.156Z,11.20
2023-04-24T15:35:11.995Z,11.30
2023-04-24T15:37:40.248Z,11.20
2023-04-24T15:40:08.868Z,11.20
2023-04-24T15:42:37.196Z,11.30
2023-04-24T15:45:05.226Z,11.30
2023-04-24T15:47:33.975Z,11.20
2023-04-24T15:50:02.151Z,11.10
2023-04-24T15:52:31.196Z,11.10
2023-04-24T15:54:59.229Z,11.10
2023-04-24T15:57:27.213Z,11.10
2023-04-24T15:59:55.496Z,11.00
2023-04-24T16:02:24.208Z,11.00
2023-04-24T16:04:53.277Z,11.00
2023-04-24T16:07:21.172Z,11.00
2023-04-24T16:09:50.275Z,11.20
2023-04-24T16:12:18.566Z,11.20
2023-04-24T16:14:46.285Z,11.30
2023-04-24T16:17:14.478Z,11.50
2023-04-24T16:19:43.266Z,11.60
2023-04-24T16:22:11.210Z,11.70
2023-04-24T16:24:39.111Z,11.60
2023-04-24T16:27:08.424Z,11.20
2023-04-24T16:29:36.408Z,11.20
2023-04-24T16:32:04.222Z,10.90
2023-04-24T16:34:32.064Z,10.70
2023-04-24T16:37:00.064Z,10.70
2023-04-24T16:39:28.181Z,10.60
2023-04-24T16:41:59.680Z,10.80
2023-04-24T16:44:29.350Z,10.90
2023-04-24T16:46:57.287Z,11.10
2023-04-24T16:49:25.803Z,10.80
2023-04-24T16:51:53.879Z,10.80
2023-04-24T16:54:22.197Z,10.80
2023-04-24T16:56:50.054Z,10.80
2023-04-24T16:59:17.932Z,10.80
2023-04-24T17:01:48.193Z,10.90
2023-04-24T17:04:16.537Z,10.90
2023-04-24T17:06:44.729Z,10.80
2023-04-24T17:09:14.541Z,10.80
2023-04-24T17:11:42.498Z,10.70
2023-04-24T17:14:10.499Z,10.50
2023-04-24T17:16:38.653Z,10.50
2023-04-24T17:19:08.714Z,10.50
2023-04-24T17:21:36.573Z,10.60
2023-04-24T17:24:04.601Z,10.60
2023-04-24T17:26:32.666Z,10.60
2023-04-24T17:29:00.705Z,10.40
2023-04-24T17:31:28.671Z,10.50
2023-04-24T17:33:56.692Z,10.40
2023-04-24T17:36:26.448Z,10.30
2023-04-24T17:38:54.501Z,10.20
2023-04-24T17:41:22.543Z,10.20
2023-04-24T17:43:50.381Z,10.30
2023-04-24T17:46:18.314Z,10.20
2023-04-24T17:48:48.289Z,10.30
2023-04-24T17:51:17.663Z,10.40
2023-04-24T17:53:48.613Z,10.20
2023-04-24T17:56:16.467Z,10.10
2023-04-24T17:58:44.435Z,10.10
2023-04-24T18:01:12.476Z,10.10
2023-04-24T18:03:40.887Z,10.10
2023-04-24T18:06:10.117Z,10.10
2023-04-24T18:08:38.079Z,10.00
2023-04-24T18:11:07.429Z,9.90
2023-04-24T18:13:35.461Z,9.80
2023-04-24T18:16:03.557Z,9.80
2023-04-24T18:18:31.275Z,9.70
2023-04-24T18:20:59.104Z,9.70
2023-04-24T18:23:27.288Z,9.60
2023-04-24T18:25:55.123Z,9.60
2023-04-24T18:28:24.456Z,9.50
2023-04-24T18:30:52.439Z,9.50
2023-04-24T18:33:20.270Z,9.40
2023-04-24T18:35:48.158Z,9.30
2023-04-24T18:38:16.409Z,9.30
2023-04-24T18:40:44.614Z,9.20
2023-04-24T18:43:12.500Z,9.20
2023-04-24T18:45:41.865Z,9.20
2023-04-24T18:48:09.681Z,9.10
2023-04-24T18:50:39.183Z,9.10
2023-04-24T18:53:07.257Z,9.00
2023-04-24T18:55:36.106Z,9.00
2023-04-24T18:58:04.108Z,9.00
2023-04-24T19:00:32.157Z,9.00
2023-04-24T19:03:01.571Z,8.90
2023-04-24T19:05:29.486Z,8.90
2023-04-24T19:07:57.419Z,8.80
2023-04-24T19:10:25.384Z,8.80
2023-04-24T19:12:56.760Z,8.80
2023-04-24T19:15:27.414Z,8.70
2023-04-24T19:17:59.958Z,8.70
2023-04-24T19:20:31.290Z,8.70
2023-04-24T19:23:03.658Z,8.70
2023-04-24T19:25:33.779Z,8.70
2023-04-24T19:28:03.266Z,8.60
2023-04-24T19:30:31.853Z,8.60
2023-04-24T19:32:59.874Z,8.60
2023-04-24T19:35:29.174Z,8.60
2023-04-24T19:37:57.022Z,8.50
2023-04-24T19:40:25.083Z,8.50
2023-04-24T19:42:52.925Z,8.50
2023-04-24T19:45:20.924Z,8.50
2023-04-24T19:47:48.878Z,8.50
2023-04-24T19:50:16.928Z,8.40
2023-04-24T19:52:46.081Z,8.40
2023-04-24T19:55:14.423Z,8.40
2023-04-24T19:57:42.583Z,8.40
2023-04-24T20:00:10.818Z,8.30
2023-04-24T20:02:39.052Z,8.30
2023-04-24T20:05:07.733Z,8.30
2023-04-24T20:07:36.396Z,8.30
2023-04-24T20:10:06.212Z,8.20
2023-04-24T20:12:34.133Z,8.20
2023-04-24T20:15:01.857Z,8.20
2023-04-24T20:17:29.815Z,8.20
2023-04-24T20:19:57.908Z,8.20
2023-04-24T20:22:25.809Z,8.10
2023-04-24T20:24:53.686Z,8.00
2023-04-24T20:27:23.045Z,8.00
2023-04-24T20:29:51.001Z,8.00
2023-04-24T20:32:18.856Z,7.90
2023-04-24T20:34:49.489Z,7.90
2023-04-24T20:37:17.294Z,8.00
2023-04-24T20:39:46.252Z,7.80
2023-04-24T20:42:16.603Z,7.80
2023-04-24T20:44:47.020Z,7.80
2023-04-24T20:47:15.509Z,7.80
2023-04-24T20:49:43.296Z,7.90
2023-04-24T20:52:11.109Z,7.70
2023-04-24T20:54:39.121Z,7.70
2023-04-24T20:57:07.010Z,7.70
2023-04-24T20:59:35.117Z,7.70
2023-04-24T21:02:04.607Z,7.60
2023-04-24T21:04:35.094Z,7.60
2023-04-24T21:07:03.117Z,7.60
2023-04-24T21:09:31.049Z,7.60
2023-04-24T21:11:59.069Z,7.60
2023-04-24T21:14:26.887Z,7.50
2023-04-24T21:16:57.541Z,7.40
2023-04-24T21:19:26.830Z,7.40
2023-04-24T21:21:54.635Z,7.40
2023-04-24T21:24:23.027Z,7.30
2023-04-24T21:26:51.407Z,7.30
2023-04-24T21:29:19.188Z,7.30
2023-04-24T21:31:47.348Z,7.40
2023-04-24T21:34:15.498Z,7.30
2023-04-24T21:36:46.004Z,7.20
2023-04-24T21:39:14.647Z,7.20
2023-04-24T21:41:42.405Z,7.20
2023-04-24T21:44:10.608Z,7.20
2023-04-24T21:46:38.500Z,7.10
2023-04-24T21:49:06.449Z,7.10
2023-04-24T21:51:34.290Z,7.10
2023-04-24T21:54:03.859Z,7.10
2023-04-24T21:56:31.689Z,7.10
2023-04-24T21:58:59.541Z,7.20
2023-04-24T22:01:27.405Z,7.30
2023-04-24T22:03:55.646Z,7.40
2023-04-24T22:06:23.892Z,7.40
2023-04-24T22:08:52.024Z,7.40
2023-04-24T22:11:26.838Z,7.40
2023-04-24T22:13:55.327Z,7.40
2023-04-24T22:16:24.287Z,7.40
2023-04-24T22:18:53.714Z,7.40
2023-04-24T22:21:23.125Z,7.40
2023-04-24T22:23:51.376Z,7.40
2023-04-24T22:26:21.039Z,7.40
2023-04-24T22:28:49.223Z,7.50
2023-04-24T22:31:17.299Z,7.40
2023-04-24T22:33:47.617Z,7.50
2023-04-24T22:36:15.925Z,7.40
2023-04-24T22:38:43.792Z,7.40
2023-04-24T22:41:11.739Z,7.30
2023-04-24T22:43:41.132Z,7.30
2023-04-24T22:46:08.936Z,7.30
2023-04-24T22:48:36.775Z,7.20
2023-04-24T22:51:04.827Z,7.20
2023-04-24T22:53:32.665Z,7.20
2023-04-24T22:56:00.945Z,7.20
2023-04-24T22:58:29.445Z,7.20
2023-04-24T23:00:58.773Z,7.20
2023-04-24T23:03:26.677Z,7.10
2023-04-24T23:05:55.399Z,7.10
2023-04-24T23:08:23.364Z,7.20
2023-04-24T23:10:51.061Z,7.20
2023-04-24T23:13:19.139Z,7.20
2023-04-24T23:15:46.827Z,7.20
2023-04-24T23:18:16.010Z,7.20
2023-04-24T23:20:44.054Z,7.20
2023-04-24T23:23:11.931Z,7.30
2023-04-24T23:25:39.739Z,7.30
2023-04-24T23:28:07.860Z,7.30
2023-04-24T23:30:35.608Z,7.30
2023-04-24T23:33:03.596Z,7.40
2023-04-24T23:35:33.224Z,7.50
2023-04-24T23:38:01.669Z,7.40
2023-04-24T23:40:29.544Z,7.40
2023-04-24T23:43:06.096Z,7.40
2023-04-24T23:45:34.631Z,7.40
2023-04-24T23:48:03.184Z,7.40
2023-04-24T23:50:34.627Z,7.40
2023-04-24T23:53:02.857Z,7.40
2023-04-24T23:55:31.351Z,7.50
2023-04-24T23:57:59.149Z,7.40
